createdAt,value
2023-03-17T00:00:04.212Z,72.86
2023-03-17T00:01:08.219Z,72.75
2023-03-17T00:02:10.239Z,73.36
2023-03-17T00:03:20.297Z,73.08
2023-03-17T00:04:24.012Z,73.19
2023-03-17T00:05:30.625Z,73.19
2023-03-17T00:06:33.848Z,73.72
2023-03-17T00:07:36.519Z,74.16
2023-03-17T00:08:38.065Z,74.11
2023-03-17T00:09:40.786Z,74.24
2023-03-17T00:10:42.785Z,73.84
2023-03-17T00:11:47.036Z,74.20
2023-03-17T00:12:50.598Z,73.79
2023-03-17T00:13:53.416Z,73.03
2023-03-17T00:14:54.902Z,73.69
2023-03-17T00:16:02.543Z,73.91
2023-03-17T00:17:05.577Z,73.00
2023-03-17T00:18:14.819Z,74.04
2023-03-17T00:19:17.842Z,73.89
2023-03-17T00:20:26.457Z,73.44
2023-03-17T00:21:31.031Z,73.87
2023-03-17T00:22:33.547Z,73.41
2023-03-17T00:23:35.853Z,72.93
2023-03-17T00:24:38.624Z,72.30
2023-03-17T00:25:43.359Z,72.49
2023-03-17T00:26:46.175Z,73.12
2023-03-17T00:27:48.825Z,72.96
2023-03-17T00:28:52.930Z,72.47
2023-03-17T00:29:54.500Z,72.37
2023-03-17T00:31:00.891Z,72.53
2023-03-17T00:32:02.761Z,71.76
2023-03-17T00:33:07.547Z,71.99
2023-03-17T00:34:12.164Z,72.10
2023-03-17T00:35:21.808Z,72.17
2023-03-17T00:36:26.182Z,71.94
2023-03-17T00:37:29.336Z,71.72
2023-03-17T00:38:31.385Z,72.12
2023-03-17T00:39:33.944Z,72.28
2023-03-17T00:40:36.709Z,72.43
2023-03-17T00:41:39.340Z,72.06
2023-03-17T00:42:41.817Z,72.57
2023-03-17T00:43:44.291Z,72.46
2023-03-17T00:44:46.417Z,71.67
2023-03-17T00:45:49.434Z,71.92
2023-03-17T00:46:51.954Z,72.87
2023-03-17T00:47:56.009Z,72.14
2023-03-17T00:48:59.667Z,73.37
2023-03-17T00:50:02.526Z,72.69
2023-03-17T00:51:05.282Z,71.94
2023-03-17T00:52:08.269Z,72.07
2023-03-17T00:53:12.333Z,71.16
2023-03-17T00:54:15.469Z,73.76
2023-03-17T00:55:17.657Z,72.58
2023-03-17T00:56:22.001Z,73.28
2023-03-17T00:57:23.596Z,72.71
2023-03-17T00:58:28.759Z,72.59
2023-03-17T00:59:38.009Z,72.77
2023-03-17T01:00:40.626Z,71.86
2023-03-17T01:01:42.157Z,70.93
2023-03-17T01:02:45.629Z,70.33
2023-03-17T01:03:47.229Z,69.76
2023-03-17T01:04:59.750Z,68.79
2023-03-17T01:06:11.911Z,70.71
2023-03-17T01:07:14.166Z,70.84
2023-03-17T01:08:18.071Z,70.75
2023-03-17T01:09:23.197Z,69.56
2023-03-17T01:10:28.392Z,69.65
2023-03-17T01:11:30.090Z,70.37
2023-03-17T01:12:33.318Z,69.72
2023-03-17T01:13:35.164Z,69.69
2023-03-17T01:14:38.148Z,69.96
2023-03-17T01:15:43.925Z,69.34
2023-03-17T01:16:48.197Z,69.47
2023-03-17T01:17:50.508Z,70.83
2023-03-17T01:18:53.483Z,71.06
2023-03-17T01:19:57.801Z,70.97
2023-03-17T01:21:00.393Z,72.19
2023-03-17T01:22:01.934Z,71.38
2023-03-17T01:23:04.914Z,70.51
2023-03-17T01:24:08.230Z,69.68
2023-03-17T01:25:11.377Z,70.47
2023-03-17T01:26:12.893Z,70.35
2023-03-17T01:27:16.052Z,69.89
2023-03-17T01:28:18.632Z,69.74
2023-03-17T01:29:21.671Z,69.75
2023-03-17T01:30:27.560Z,69.63
2023-03-17T01:31:30.730Z,68.85
2023-03-17T01:32:32.802Z,68.18
2023-03-17T01:33:35.548Z,67.75
2023-03-17T01:34:37.087Z,68.68
2023-03-17T01:35:43.794Z,68.67
2023-03-17T01:36:45.502Z,68.06
2023-03-17T01:37:48.895Z,67.42
2023-03-17T01:38:51.169Z,68.40
2023-03-17T01:39:53.974Z,67.90
2023-03-17T01:40:55.586Z,68.54
2023-03-17T01:42:01.580Z,69.21
2023-03-17T01:43:18.397Z,69.32
2023-03-17T01:44:20.849Z,67.46
2023-03-17T01:45:59.862Z,67.31
2023-03-17T01:47:02.589Z,66.76
2023-03-17T01:48:04.384Z,66.63
2023-03-17T01:49:12.756Z,66.47
2023-03-17T01:50:14.592Z,66.00
2023-03-17T01:51:23.542Z,65.74
2023-03-17T01:52:26.319Z,65.58
2023-03-17T01:53:28.319Z,65.48
2023-03-17T01:54:38.557Z,66.18
2023-03-17T01:55:41.213Z,65.58
2023-03-17T01:56:46.411Z,66.17
2023-03-17T01:57:51.487Z,65.28
2023-03-17T01:58:56.142Z,65.48
2023-03-17T02:00:01.931Z,65.69
2023-03-17T02:01:04.864Z,65.55
2023-03-17T02:02:09.529Z,65.83
2023-03-17T02:03:12.490Z,65.36
2023-03-17T02:04:14.333Z,66.00
2023-03-17T02:05:19.862Z,66.25
2023-03-17T02:06:22.748Z,66.32
2023-03-17T02:07:26.562Z,66.11
2023-03-17T02:08:28.096Z,66.81
2023-03-17T02:09:31.536Z,66.41
2023-03-17T02:10:33.569Z,67.92
2023-03-17T02:11:36.067Z,67.15
2023-03-17T02:12:37.624Z,66.14
2023-03-17T02:13:41.852Z,67.59
2023-03-17T02:14:44.438Z,67.45
2023-03-17T02:15:49.954Z,67.73
2023-03-17T02:16:51.546Z,68.31
2023-03-17T02:17:54.377Z,67.79
2023-03-17T02:18:56.125Z,67.39
2023-03-17T02:20:14.226Z,67.56
2023-03-17T02:21:35.143Z,67.41
2023-03-17T02:22:38.440Z,67.37
2023-03-17T02:23:40.361Z,68.31
2023-03-17T02:24:45.902Z,69.35
2023-03-17T02:25:48.498Z,68.41
2023-03-17T02:26:53.948Z,70.33
2023-03-17T02:27:59.997Z,69.71
2023-03-17T02:29:03.613Z,69.55
2023-03-17T02:30:07.371Z,69.20
2023-03-17T02:31:09.887Z,69.40
2023-03-17T02:32:13.159Z,69.37
2023-03-17T02:33:14.681Z,69.19
2023-03-17T02:34:18.337Z,70.17
2023-03-17T02:35:20.532Z,69.84
2023-03-17T02:36:23.399Z,68.85
2023-03-17T02:37:27.223Z,69.16
2023-03-17T02:38:28.982Z,70.71
2023-03-17T02:39:31.868Z,70.06
2023-03-17T02:40:33.352Z,70.21
2023-03-17T02:41:36.363Z,69.40
2023-03-17T02:42:39.218Z,71.39
2023-03-17T02:43:42.850Z,70.94
2023-03-17T02:44:45.393Z,70.71
2023-03-17T02:45:46.957Z,70.50
2023-03-17T02:46:49.428Z,70.34
2023-03-17T02:47:51.765Z,70.74
2023-03-17T02:48:55.744Z,70.02
2023-03-17T02:49:57.462Z,71.84
2023-03-17T02:50:59.995Z,71.44
2023-03-17T02:52:01.626Z,71.27
2023-03-17T02:53:05.489Z,71.07
2023-03-17T02:54:07.091Z,70.51
2023-03-17T02:55:10.475Z,70.86
2023-03-17T02:56:12.068Z,71.35
2023-03-17T02:57:14.545Z,70.59
2023-03-17T02:58:16.041Z,72.05
2023-03-17T02:59:18.576Z,70.63
2023-03-17T03:00:21.573Z,70.13
2023-03-17T03:01:27.097Z,69.81
2023-03-17T03:02:28.713Z,70.48
2023-03-17T03:03:31.539Z,70.67
2023-03-17T03:04:33.107Z,70.60
2023-03-17T03:05:35.875Z,70.95
2023-03-17T03:06:39.990Z,71.29
2023-03-17T03:07:41.578Z,71.00
2023-03-17T03:08:46.075Z,70.55
2023-03-17T03:09:47.641Z,70.48
2023-03-17T03:10:50.139Z,70.15
2023-03-17T03:11:52.230Z,69.30
2023-03-17T03:12:54.755Z,68.99
2023-03-17T03:13:56.311Z,69.79
2023-03-17T03:14:58.855Z,69.40
2023-03-17T03:16:00.630Z,69.63
2023-03-17T03:17:04.452Z,69.12
2023-03-17T03:18:06.414Z,69.51
2023-03-17T03:19:09.127Z,71.18
2023-03-17T03:20:13.247Z,71.27
2023-03-17T03:21:15.985Z,72.51
2023-03-17T03:22:17.551Z,71.60
2023-03-17T03:23:20.037Z,72.02
2023-03-17T03:24:22.920Z,72.68
2023-03-17T03:25:25.417Z,72.09
2023-03-17T03:26:27.323Z,71.73
2023-03-17T03:27:30.122Z,71.23
2023-03-17T03:28:31.891Z,71.40
2023-03-17T03:29:34.714Z,70.85
2023-03-17T03:30:37.572Z,70.46
2023-03-17T03:31:40.056Z,70.48
2023-03-17T03:32:41.722Z,69.24
2023-03-17T03:33:45.549Z,69.45
2023-03-17T03:34:47.084Z,69.93
2023-03-17T03:35:49.565Z,70.63
2023-03-17T03:36:51.270Z,72.23
2023-03-17T03:37:53.854Z,71.73
2023-03-17T03:38:55.471Z,72.63
2023-03-17T03:39:59.310Z,72.91
2023-03-17T03:41:01.968Z,72.62
2023-03-17T03:42:04.091Z,72.52
2023-03-17T03:43:21.898Z,71.16
2023-03-17T03:44:24.548Z,71.00
2023-03-17T03:45:27.487Z,70.86
2023-03-17T03:46:29.077Z,70.65
2023-03-17T03:47:31.605Z,70.34
2023-03-17T03:48:33.595Z,70.15
2023-03-17T03:49:36.143Z,72.15
2023-03-17T03:50:37.775Z,71.61
2023-03-17T03:51:40.554Z,71.19
2023-03-17T03:52:42.202Z,71.13
2023-03-17T03:53:44.768Z,70.19
2023-03-17T03:54:46.803Z,69.79
2023-03-17T03:55:50.669Z,70.55
2023-03-17T03:56:52.608Z,71.13
2023-03-17T03:57:55.539Z,70.62
2023-03-17T03:58:57.160Z,70.18
2023-03-17T04:00:00.323Z,69.76
2023-03-17T04:01:04.245Z,69.74
2023-03-17T04:02:09.399Z,69.84
2023-03-17T04:03:11.398Z,70.03
2023-03-17T04:04:13.932Z,69.71
2023-03-17T04:05:18.474Z,70.28
2023-03-17T04:06:20.011Z,69.33
2023-03-17T04:07:23.030Z,70.01
2023-03-17T04:08:24.966Z,69.75
2023-03-17T04:09:27.503Z,70.11
2023-03-17T04:10:29.401Z,70.16
2023-03-17T04:11:33.803Z,69.93
2023-03-17T04:12:35.429Z,70.75
2023-03-17T04:13:38.395Z,71.29
2023-03-17T04:14:39.966Z,70.40
2023-03-17T04:15:42.516Z,70.62
2023-03-17T04:16:44.499Z,70.67
2023-03-17T04:17:47.513Z,70.23
2023-03-17T04:18:49.089Z,70.27
2023-03-17T04:19:52.338Z,69.92
2023-03-17T04:20:53.986Z,68.86
2023-03-17T04:21:56.541Z,68.86
2023-03-17T04:22:58.112Z,69.02
2023-03-17T04:24:00.921Z,69.69
2023-03-17T04:25:02.736Z,69.71
2023-03-17T04:26:05.875Z,70.58
2023-03-17T04:27:10.471Z,70.86
2023-03-17T04:28:12.428Z,70.31
2023-03-17T04:29:15.955Z,70.07
2023-03-17T04:30:18.092Z,69.65
2023-03-17T04:31:21.035Z,71.38
2023-03-17T04:32:22.637Z,71.21
2023-03-17T04:33:25.181Z,70.83
2023-03-17T04:34:27.369Z,70.91
2023-03-17T04:35:30.585Z,70.45
2023-03-17T04:36:32.801Z,70.00
2023-03-17T04:37:35.300Z,70.22
2023-03-17T04:38:36.854Z,69.20
2023-03-17T04:39:39.705Z,69.59
2023-03-17T04:40:41.741Z,70.56
2023-03-17T04:41:44.226Z,72.58
2023-03-17T04:42:47.101Z,72.47
2023-03-17T04:43:49.630Z,73.26
2023-03-17T04:44:51.167Z,75.83
2023-03-17T04:45:53.652Z,76.91
2023-03-17T04:46:55.782Z,75.99
2023-03-17T04:47:58.280Z,75.37
2023-03-17T04:48:59.847Z,75.53
2023-03-17T04:50:03.140Z,74.87
2023-03-17T04:51:05.182Z,73.78
2023-03-17T04:52:07.835Z,73.66
2023-03-17T04:53:09.342Z,72.76
2023-03-17T04:54:12.120Z,72.74
2023-03-17T04:55:14.195Z,72.36
2023-03-17T04:56:16.895Z,73.79
2023-03-17T04:57:18.444Z,73.87
2023-03-17T04:58:30.492Z,74.17
2023-03-17T04:59:32.561Z,73.86
2023-03-17T05:00:38.804Z,74.30
2023-03-17T05:01:40.352Z,75.44
2023-03-17T05:02:42.920Z,74.58
2023-03-17T05:03:45.356Z,73.28
2023-03-17T05:04:48.023Z,72.85
2023-03-17T05:05:50.649Z,72.20
2023-03-17T05:06:53.261Z,71.65
2023-03-17T05:07:54.764Z,71.29
2023-03-17T05:08:57.231Z,71.91
2023-03-17T05:09:58.772Z,73.68
2023-03-17T05:11:01.840Z,74.93
2023-03-17T05:12:03.566Z,76.45
2023-03-17T05:13:06.528Z,76.62
2023-03-17T05:14:09.422Z,74.91
2023-03-17T05:15:12.539Z,73.52
2023-03-17T05:16:14.112Z,72.71
2023-03-17T05:17:16.623Z,72.14
2023-03-17T05:18:19.459Z,71.14
2023-03-17T05:19:22.093Z,70.30
2023-03-17T05:20:23.979Z,70.25
2023-03-17T05:21:27.087Z,70.30
2023-03-17T05:22:28.639Z,70.18
2023-03-17T05:23:31.334Z,70.29
2023-03-17T05:24:33.469Z,70.39
2023-03-17T05:25:36.645Z,71.57
2023-03-17T05:26:38.242Z,71.66
2023-03-17T05:27:40.832Z,72.23
2023-03-17T05:28:42.383Z,71.74
2023-03-17T05:29:46.173Z,71.28
2023-03-17T05:30:48.547Z,70.81
2023-03-17T05:31:51.482Z,70.19
2023-03-17T05:32:53.233Z,69.92
2023-03-17T05:33:56.539Z,69.96
2023-03-17T05:34:58.140Z,70.14
2023-03-17T05:36:01.458Z,70.37
2023-03-17T05:37:03.374Z,71.13
2023-03-17T05:38:06.799Z,70.95
2023-03-17T05:39:09.343Z,70.67
2023-03-17T05:40:13.796Z,70.32
2023-03-17T05:41:16.569Z,70.33
2023-03-17T05:42:18.261Z,72.45
2023-03-17T05:43:22.769Z,71.58
2023-03-17T05:44:24.822Z,72.62
2023-03-17T05:45:29.320Z,72.88
2023-03-17T05:46:30.921Z,72.08
2023-03-17T05:47:33.631Z,71.65
2023-03-17T05:48:35.479Z,71.23
2023-03-17T05:49:38.428Z,71.67
2023-03-17T05:50:41.665Z,71.53
2023-03-17T05:51:44.225Z,70.70
2023-03-17T05:52:45.798Z,70.71
2023-03-17T05:53:48.617Z,71.10
2023-03-17T05:54:51.978Z,71.87
2023-03-17T05:55:54.403Z,71.67
2023-03-17T05:56:56.086Z,71.47
2023-03-17T05:57:58.932Z,70.53
2023-03-17T05:59:01.641Z,70.83
2023-03-17T06:00:05.818Z,70.06
2023-03-17T06:01:09.719Z,70.48
2023-03-17T06:02:12.182Z,70.30
2023-03-17T06:03:15.237Z,69.84
2023-03-17T06:04:17.114Z,69.90
2023-03-17T06:05:19.600Z,69.92
2023-03-17T06:06:21.354Z,70.10
2023-03-17T06:07:23.859Z,69.83
2023-03-17T06:08:25.420Z,69.75
2023-03-17T06:09:28.168Z,69.17
2023-03-17T06:10:30.363Z,69.46
2023-03-17T06:11:33.127Z,69.33
2023-03-17T06:12:34.908Z,69.24
2023-03-17T06:13:37.533Z,69.65
2023-03-17T06:14:39.318Z,69.22
2023-03-17T06:15:42.483Z,69.97
2023-03-17T06:16:46.115Z,70.18
2023-03-17T06:17:48.646Z,69.62
2023-03-17T06:18:50.557Z,69.67
2023-03-17T06:19:53.096Z,69.73
2023-03-17T06:20:55.703Z,69.59
2023-03-17T06:21:57.216Z,69.37
2023-03-17T06:23:04.883Z,69.46
2023-03-17T06:24:08.109Z,68.74
2023-03-17T06:25:11.884Z,70.15
2023-03-17T06:26:13.357Z,70.48
2023-03-17T06:27:16.025Z,69.56
2023-03-17T06:28:18.460Z,70.19
2023-03-17T06:29:21.606Z,70.49
2023-03-17T06:30:23.189Z,71.39
2023-03-17T06:31:26.484Z,70.76
2023-03-17T06:32:30.650Z,70.14
2023-03-17T06:33:33.100Z,69.82
2023-03-17T06:34:34.847Z,69.09
2023-03-17T06:35:37.324Z,68.46
2023-03-17T06:36:39.254Z,69.25
2023-03-17T06:37:41.830Z,68.85
2023-03-17T06:38:43.824Z,68.56
2023-03-17T06:39:48.100Z,68.80
2023-03-17T06:40:50.576Z,68.50
2023-03-17T06:41:52.346Z,68.43
2023-03-17T06:42:54.827Z,68.90
2023-03-17T06:43:56.564Z,68.46
2023-03-17T06:44:59.084Z,68.14
2023-03-17T06:46:01.415Z,68.12
2023-03-17T06:47:04.917Z,67.54
2023-03-17T06:48:09.214Z,67.29
2023-03-17T06:49:13.411Z,67.74
2023-03-17T06:50:16.178Z,67.04
2023-03-17T06:51:17.744Z,66.57
2023-03-17T06:52:20.304Z,66.55
2023-03-17T06:53:22.104Z,66.07
2023-03-17T06:54:25.531Z,66.10
2023-03-17T06:55:29.029Z,65.76
2023-03-17T06:56:30.900Z,65.66
2023-03-17T06:57:33.534Z,65.00
2023-03-17T06:58:35.189Z,66.89
2023-03-17T06:59:38.111Z,67.17
2023-03-17T07:00:40.137Z,67.28
2023-03-17T07:01:42.633Z,66.06
2023-03-17T07:02:44.516Z,66.05
2023-03-17T07:03:48.681Z,65.36
2023-03-17T07:04:50.713Z,65.05
2023-03-17T07:05:53.648Z,64.44
2023-03-17T07:06:56.289Z,64.47
2023-03-17T07:07:57.816Z,65.41
2023-03-17T07:09:02.167Z,66.28
2023-03-17T07:10:04.552Z,66.49
2023-03-17T07:11:07.124Z,66.43
2023-03-17T07:12:10.580Z,65.53
2023-03-17T07:13:13.584Z,65.00
2023-03-17T07:14:15.175Z,63.79
2023-03-17T07:15:18.884Z,64.24
2023-03-17T07:16:21.246Z,63.20
2023-03-17T07:17:23.960Z,63.13
2023-03-17T07:18:25.995Z,62.11
2023-03-17T07:19:30.080Z,62.58
2023-03-17T07:20:31.875Z,62.70
2023-03-17T07:21:34.393Z,62.09
2023-03-17T07:22:35.875Z,61.13
2023-03-17T07:23:38.520Z,61.71
2023-03-17T07:24:41.970Z,60.64
2023-03-17T07:25:44.574Z,60.35
2023-03-17T07:26:47.202Z,60.27
2023-03-17T07:27:49.864Z,59.92
2023-03-17T07:28:51.942Z,59.64
2023-03-17T07:29:54.790Z,59.11
2023-03-17T07:30:58.002Z,59.00
2023-03-17T07:32:00.530Z,58.06
2023-03-17T07:33:02.252Z,58.39
2023-03-17T07:34:06.576Z,58.43
2023-03-17T07:35:10.785Z,57.19
2023-03-17T07:36:12.830Z,57.50
2023-03-17T07:37:15.348Z,57.43
2023-03-17T07:38:19.131Z,57.83
2023-03-17T07:39:21.601Z,57.70
2023-03-17T07:40:24.138Z,57.23
2023-03-17T07:41:26.694Z,57.47
2023-03-17T07:42:28.969Z,57.36
2023-03-17T07:43:31.935Z,57.15
2023-03-17T07:44:33.529Z,57.04
2023-03-17T07:45:36.993Z,57.40
2023-03-17T07:46:39.846Z,59.11
2023-03-17T07:47:41.607Z,58.86
2023-03-17T07:48:44.563Z,57.27
2023-03-17T07:49:46.916Z,56.59
2023-03-17T07:50:50.839Z,57.14
2023-03-17T07:51:52.374Z,56.80
2023-03-17T07:52:55.301Z,55.61
2023-03-17T07:54:03.994Z,55.45
2023-03-17T07:55:08.465Z,55.38
2023-03-17T07:56:11.217Z,55.29
2023-03-17T07:57:17.043Z,55.17
2023-03-17T07:58:18.730Z,54.01
2023-03-17T07:59:21.304Z,54.10
2023-03-17T08:00:23.616Z,56.13
2023-03-17T08:01:26.464Z,55.42
2023-03-17T08:02:28.127Z,54.68
2023-03-17T08:03:31.648Z,55.44
2023-03-17T08:04:35.306Z,54.10
2023-03-17T08:05:38.078Z,54.83
2023-03-17T08:06:43.099Z,56.50
2023-03-17T08:07:44.653Z,55.03
2023-03-17T08:08:47.319Z,54.06
2023-03-17T08:09:50.048Z,53.57
2023-03-17T08:10:52.090Z,53.45
2023-03-17T08:11:54.613Z,52.91
2023-03-17T08:12:56.464Z,56.04
2023-03-17T08:13:59.927Z,59.17
2023-03-17T08:15:01.547Z,61.78
2023-03-17T08:16:04.177Z,57.63
2023-03-17T08:17:06.345Z,58.42
2023-03-17T08:18:09.073Z,55.95
2023-03-17T08:19:11.880Z,53.90
2023-03-17T08:20:14.263Z,53.53
2023-03-17T08:21:17.552Z,53.02
2023-03-17T08:22:20.971Z,55.56
2023-03-17T08:23:23.535Z,56.60
2023-03-17T08:24:26.433Z,54.97
2023-03-17T08:25:29.633Z,52.27
2023-03-17T08:26:32.216Z,51.04
2023-03-17T08:27:34.722Z,52.13
2023-03-17T08:28:37.422Z,51.02
2023-03-17T08:29:39.602Z,52.59
2023-03-17T08:30:42.482Z,50.62
2023-03-17T08:31:46.555Z,49.89
2023-03-17T08:32:49.372Z,51.93
2023-03-17T08:33:52.566Z,52.47
2023-03-17T08:34:55.780Z,53.21
2023-03-17T08:35:57.649Z,55.55
2023-03-17T08:37:01.794Z,55.03
2023-03-17T08:38:04.947Z,51.85
2023-03-17T08:39:07.589Z,53.78
2023-03-17T08:40:11.348Z,51.12
2023-03-17T08:41:16.565Z,51.99
2023-03-17T08:42:18.532Z,51.11
2023-03-17T08:43:21.461Z,52.35
2023-03-17T08:44:23.312Z,49.94
2023-03-17T08:45:25.908Z,49.26
2023-03-17T08:46:29.429Z,51.69
2023-03-17T08:47:32.187Z,52.04
2023-03-17T08:48:35.672Z,51.06
2023-03-17T08:49:38.601Z,51.38
2023-03-17T08:50:41.088Z,49.35
2023-03-17T08:51:44.735Z,50.84
2023-03-17T08:52:48.698Z,49.67
2023-03-17T08:53:52.353Z,49.89
2023-03-17T08:54:55.328Z,51.44
2023-03-17T08:55:57.533Z,49.00
2023-03-17T08:57:01.814Z,49.36
2023-03-17T08:58:05.321Z,51.73
2023-03-17T08:59:08.488Z,48.72
2023-03-17T09:00:13.047Z,51.29
2023-03-17T09:01:17.451Z,49.51
2023-03-17T09:02:20.408Z,48.55
2023-03-17T09:03:22.897Z,48.51
2023-03-17T09:04:25.938Z,50.38
2023-03-17T09:05:28.978Z,48.96
2023-03-17T09:06:31.884Z,49.26
2023-03-17T09:07:35.646Z,48.24
2023-03-17T09:08:39.875Z,51.42
2023-03-17T09:09:43.955Z,47.53
2023-03-17T09:10:45.681Z,47.82
2023-03-17T09:11:48.177Z,47.76
2023-03-17T09:12:50.104Z,48.65
2023-03-17T09:13:52.794Z,49.33
2023-03-17T09:14:56.188Z,49.45
2023-03-17T09:15:59.776Z,48.29
2023-03-17T09:17:02.281Z,48.14
2023-03-17T09:18:06.240Z,49.93
2023-03-17T09:19:09.356Z,51.58
2023-03-17T09:20:11.549Z,48.68
2023-03-17T09:21:16.134Z,49.29
2023-03-17T09:22:19.725Z,50.22
2023-03-17T09:23:23.261Z,49.63
2023-03-17T09:24:26.085Z,51.02
2023-03-17T09:25:29.012Z,49.97
2023-03-17T09:26:31.987Z,49.29
2023-03-17T09:27:33.588Z,50.34
2023-03-17T09:28:36.128Z,49.36
2023-03-17T09:29:38.606Z,49.42
2023-03-17T09:30:42.580Z,48.39
2023-03-17T09:31:44.618Z,49.97
2023-03-17T09:32:47.185Z,48.96
2023-03-17T09:33:48.756Z,48.17
2023-03-17T09:34:51.753Z,48.22
2023-03-17T09:35:54.372Z,47.81
2023-03-17T09:36:57.303Z,48.27
2023-03-17T09:37:58.927Z,48.40
2023-03-17T09:39:01.803Z,49.38
2023-03-17T09:40:08.448Z,47.17
2023-03-17T09:41:30.665Z,48.20
2023-03-17T09:42:48.636Z,47.25
2023-03-17T09:43:56.925Z,47.31
2023-03-17T09:45:06.459Z,50.40
2023-03-17T09:46:25.683Z,49.34
2023-03-17T09:47:47.047Z,47.29
2023-03-17T09:48:59.005Z,49.14
2023-03-17T09:50:04.051Z,48.67
2023-03-17T09:51:09.016Z,47.77
2023-03-17T09:52:13.698Z,49.73
2023-03-17T09:53:20.978Z,46.46
2023-03-17T09:54:26.814Z,46.49
2023-03-17T09:55:32.901Z,46.72
2023-03-17T09:56:40.614Z,46.83
2023-03-17T09:57:43.671Z,46.71
2023-03-17T09:58:51.395Z,46.59
2023-03-17T10:00:06.398Z,47.06
2023-03-17T10:01:12.788Z,47.64
2023-03-17T10:02:30.123Z,48.94
2023-03-17T10:03:32.532Z,48.99
2023-03-17T10:04:37.115Z,47.13
2023-03-17T10:05:38.813Z,47.52
2023-03-17T10:06:44.724Z,46.39
2023-03-17T10:07:54.487Z,46.36
2023-03-17T10:09:02.007Z,45.13
2023-03-17T10:10:13.154Z,45.97
2023-03-17T10:11:25.684Z,46.11
2023-03-17T10:12:43.950Z,45.96
2023-03-17T10:13:54.987Z,44.57
2023-03-17T10:15:01.907Z,47.47
2023-03-17T10:16:07.833Z,45.79
2023-03-17T10:17:17.555Z,44.58
2023-03-17T10:18:25.711Z,43.81
2023-03-17T10:19:32.867Z,46.21
2023-03-17T10:20:39.239Z,45.44
2023-03-17T10:21:49.730Z,45.27
2023-03-17T10:22:55.969Z,44.52
2023-03-17T10:23:59.295Z,45.23
2023-03-17T10:25:05.785Z,45.08
2023-03-17T10:26:27.357Z,43.98
2023-03-17T10:27:37.549Z,44.26
2023-03-17T10:28:40.332Z,43.82
2023-03-17T10:29:42.924Z,43.95
2023-03-17T10:30:44.781Z,46.02
2023-03-17T10:31:47.604Z,44.03
2023-03-17T10:32:51.834Z,45.75
2023-03-17T10:33:55.556Z,44.45
2023-03-17T10:34:58.297Z,42.38
2023-03-17T10:36:09.164Z,42.48
2023-03-17T10:37:18.398Z,43.92
2023-03-17T10:38:23.019Z,42.33
2023-03-17T10:39:24.892Z,42.94
2023-03-17T10:40:31.085Z,42.09
2023-03-17T10:41:34.796Z,40.13
2023-03-17T10:42:49.050Z,40.21
2023-03-17T10:43:51.897Z,39.73
2023-03-17T10:44:56.731Z,39.32
2023-03-17T10:46:02.648Z,41.31
2023-03-17T10:47:04.466Z,40.18
2023-03-17T10:48:10.920Z,40.13
2023-03-17T10:49:18.777Z,40.73
2023-03-17T10:50:24.606Z,41.18
2023-03-17T10:51:31.620Z,40.64
2023-03-17T10:52:40.764Z,38.79
2023-03-17T10:53:43.807Z,39.05
2023-03-17T10:54:48.741Z,37.98
2023-03-17T10:55:53.382Z,40.13
2023-03-17T10:57:01.295Z,38.87
2023-03-17T10:58:08.684Z,38.59
2023-03-17T10:59:19.584Z,37.42
2023-03-17T11:00:23.580Z,36.76
2023-03-17T11:01:30.205Z,36.91
2023-03-17T11:02:44.266Z,37.42
2023-03-17T11:03:47.774Z,37.75
2023-03-17T11:04:50.532Z,37.85
2023-03-17T11:05:57.757Z,39.38
2023-03-17T11:07:05.258Z,37.16
2023-03-17T11:08:12.559Z,36.94
2023-03-17T11:09:18.792Z,38.71
2023-03-17T11:10:23.984Z,37.20
2023-03-17T11:11:27.891Z,37.26
2023-03-17T11:12:36.541Z,37.70
2023-03-17T11:13:41.154Z,37.82
2023-03-17T11:14:44.079Z,36.64
2023-03-17T11:15:51.708Z,37.03
2023-03-17T11:16:55.620Z,37.00
2023-03-17T11:18:00.399Z,36.33
2023-03-17T11:19:05.747Z,36.97
2023-03-17T11:20:20.951Z,36.48
2023-03-17T11:21:28.814Z,37.08
2023-03-17T11:22:37.891Z,37.27
2023-03-17T11:23:48.224Z,37.78
2023-03-17T11:25:01.665Z,37.47
2023-03-17T11:26:14.854Z,37.70
2023-03-17T11:27:32.311Z,36.71
2023-03-17T11:28:41.127Z,37.54
2023-03-17T11:29:57.420Z,35.63
2023-03-17T11:31:09.436Z,38.04
2023-03-17T11:32:26.299Z,38.14
2023-03-17T11:33:49.740Z,37.34
2023-03-17T11:35:08.836Z,36.54
2023-03-17T11:36:27.220Z,36.48
2023-03-17T11:37:41.637Z,36.04
2023-03-17T11:38:58.203Z,36.87
2023-03-17T11:40:07.741Z,36.43
2023-03-17T11:41:29.338Z,35.46
2023-03-17T11:42:44.194Z,35.29
2023-03-17T11:44:05.587Z,37.32
2023-03-17T11:45:21.006Z,37.31
2023-03-17T11:46:28.363Z,38.53
2023-03-17T11:47:42.782Z,39.13
2023-03-17T11:48:55.148Z,36.75
2023-03-17T11:50:08.602Z,37.20
2023-03-17T11:51:21.088Z,38.60
2023-03-17T11:52:30.011Z,38.65
2023-03-17T11:53:51.435Z,38.67
2023-03-17T11:55:04.385Z,38.28
2023-03-17T11:56:12.573Z,38.81
2023-03-17T11:57:22.049Z,38.96
2023-03-17T11:58:30.332Z,38.96
2023-03-17T11:59:40.591Z,40.13
2023-03-17T12:00:50.825Z,40.50
2023-03-17T12:02:00.390Z,40.06
2023-03-17T12:03:14.509Z,40.42
2023-03-17T12:04:23.435Z,40.31
2023-03-17T12:05:26.900Z,40.01
2023-03-17T12:06:32.699Z,38.95
2023-03-17T12:07:39.128Z,40.43
2023-03-17T12:08:45.514Z,40.43
2023-03-17T12:09:57.829Z,40.08
2023-03-17T12:11:02.242Z,38.90
2023-03-17T12:12:05.474Z,39.98
2023-03-17T12:13:14.619Z,39.06
2023-03-17T12:14:26.926Z,37.30
2023-03-17T12:15:36.058Z,37.65
2023-03-17T12:16:45.058Z,37.45
2023-03-17T12:17:55.284Z,38.41
2023-03-17T12:19:06.597Z,38.45
2023-03-17T12:20:18.605Z,38.35
2023-03-17T12:21:27.435Z,39.69
2023-03-17T12:22:35.648Z,41.46
2023-03-17T12:23:45.223Z,40.37
2023-03-17T12:25:04.691Z,39.11
2023-03-17T12:26:12.344Z,38.59
2023-03-17T12:27:18.058Z,39.07
2023-03-17T12:28:25.817Z,38.50
2023-03-17T12:29:43.063Z,38.42
2023-03-17T12:30:50.887Z,38.21
2023-03-17T12:32:04.157Z,37.75
2023-03-17T12:33:16.829Z,38.92
2023-03-17T12:34:24.097Z,38.56
2023-03-17T12:35:29.624Z,39.55
2023-03-17T12:36:32.746Z,39.77
2023-03-17T12:37:34.360Z,39.73
2023-03-17T12:38:41.664Z,39.78
2023-03-17T12:39:50.266Z,39.73
2023-03-17T12:41:33.656Z,39.67
2023-03-17T12:42:47.985Z,39.45
2023-03-17T12:44:01.343Z,39.23
2023-03-17T12:45:29.687Z,39.86
2023-03-17T12:46:49.031Z,40.52
2023-03-17T12:48:08.295Z,39.25
2023-03-17T12:49:34.856Z,39.00
2023-03-17T12:51:09.003Z,38.58
2023-03-17T12:52:25.922Z,38.01
2023-03-17T12:53:31.205Z,38.36
2023-03-17T12:54:35.833Z,38.41
2023-03-17T12:55:46.938Z,39.42
2023-03-17T12:56:49.633Z,39.94
2023-03-17T12:58:01.958Z,41.45
2023-03-17T12:59:06.696Z,42.08
2023-03-17T13:00:20.422Z,42.45
2023-03-17T13:01:31.944Z,42.70
2023-03-17T13:02:37.397Z,43.78
2023-03-17T13:03:56.367Z,43.03
2023-03-17T13:05:01.750Z,42.90
2023-03-17T13:06:07.550Z,42.75
2023-03-17T13:07:12.871Z,43.13
2023-03-17T13:08:22.102Z,42.93
2023-03-17T13:09:43.058Z,43.05
2023-03-17T13:10:47.536Z,43.06
2023-03-17T13:11:50.013Z,42.84
2023-03-17T13:13:08.887Z,43.71
2023-03-17T13:14:26.103Z,43.69
2023-03-17T13:15:44.977Z,43.53
2023-03-17T13:16:47.838Z,44.21
2023-03-17T13:17:50.002Z,44.25
2023-03-17T13:19:09.323Z,44.99
2023-03-17T13:20:17.328Z,45.09
2023-03-17T13:21:25.124Z,44.04
2023-03-17T13:22:36.394Z,45.21
2023-03-17T13:23:42.388Z,43.68
2023-03-17T13:24:48.341Z,43.73
2023-03-17T13:25:53.652Z,43.88
2023-03-17T13:27:02.023Z,43.75
2023-03-17T13:28:23.877Z,44.31
2023-03-17T13:29:42.388Z,44.08
2023-03-17T13:30:57.138Z,44.52
2023-03-17T13:32:30.793Z,45.24
2023-03-17T13:33:33.481Z,44.89
2023-03-17T13:34:45.550Z,44.13
2023-03-17T13:35:59.139Z,43.88
2023-03-17T13:37:05.572Z,44.37
2023-03-17T13:38:27.554Z,44.11
2023-03-17T13:39:56.075Z,44.58
2023-03-17T13:41:27.655Z,44.49
2023-03-17T13:42:52.064Z,44.74
2023-03-17T13:44:18.819Z,45.04
2023-03-17T13:45:32.482Z,44.86
2023-03-17T13:46:44.062Z,44.66
2023-03-17T13:47:47.079Z,44.67
2023-03-17T13:48:50.424Z,45.29
2023-03-17T13:50:00.398Z,45.44
2023-03-17T13:51:14.469Z,45.19
2023-03-17T13:52:24.871Z,44.96
2023-03-17T13:53:30.931Z,45.03
2023-03-17T13:54:36.061Z,44.33
2023-03-17T13:55:41.308Z,43.48
2023-03-17T13:56:48.919Z,43.52
2023-03-17T13:57:57.298Z,43.56
2023-03-17T13:59:14.848Z,43.18